Time;durP1;ratioP1;P1;durP2;ratioP2;P2;SDS_P1;SDS_P2;PMS_P1;PMS_P2;Temp;Humidity;BMP_temperature;BMP_pressure;BME280_temperature;BME280_humidity;BME280_pressure;Samples;Min_cycle;Max_cycle;Signal;HPM_P1;HPM_P2
2022/07/09 00:01:41;;;;;;;;;;;;;;;20.07;75.20;152697.39;1779400;80;20445;-61
2022/07/09 00:04:08;;;;;;;;;;;;;;;19.95;75.76;152667.36;1779422;80;22107;-61
2022/07/09 00:06:34;;;;;;;;;;;;;;;19.87;76.27;152647.70;1779184;80;20162;-61
2022/07/09 00:09:01;;;;;;;;;;;;;;;19.79;76.80;152628.11;1779384;80;20206;-61
2022/07/09 00:11:28;;;;;;;;;;;;;;;19.69;77.29;152602.02;1779415;79;20453;-62
2022/07/09 00:13:55;;;;;;;;;;;;;;;19.59;77.82;152577.20;1779460;80;20399;-61
2022/07/09 00:16:21;;;;;;;;;;;;;;;19.53;78.42;152562.84;1779632;80;21120;-61
2022/07/09 00:18:48;;;;;;;;;;;;;;;19.43;78.82;152538.03;1782280;79;20387;-61
2022/07/09 00:21:14;;;;;;;;;;;;;;;19.36;79.36;152519.77;1782312;79;20178;-62
2022/07/09 00:23:41;;;;;;;;;;;;;;;19.31;79.81;152506.67;1782124;79;20193;-62
2022/07/09 00:26:08;;;;;;;;;;;;;;;19.24;80.63;152489.73;1782237;80;20170;-62
2022/07/09 00:28:35;;;;;;;;;;;;;;;19.17;81.25;152471.44;1782126;80;21110;-62
2022/07/09 00:31:02;;;;;;;;;;;;;;;19.12;81.83;152459.72;1782119;79;20170;-62
2022/07/09 00:33:28;;;;;;;;;;;;;;;19.06;82.30;152444.02;1782143;80;20170;-62
2022/07/09 00:35:57;;;;;;;;;;;;;;;18.99;82.91;152425.77;1782404;80;37938;-62
2022/07/09 00:38:23;;;;;;;;;;;;;;;18.97;83.40;152420.50;1782183;79;20194;-62
2022/07/09 00:40:50;;;;;;;;;;;;;;;18.97;83.92;152420.50;1782175;80;21577;-62
2022/07/09 00:43:21;;;;;;;;;;;;;;;18.97;84.37;152421.78;1782157;79;20170;-62
2022/07/09 00:45:48;;;;;;;;;;;;;;;18.96;84.75;152417.89;1782099;79;20123;-62
2022/07/09 00:48:15;;;;;;;;;;;;;;;18.96;85.25;152419.17;1782291;79;20166;-61
2022/07/09 00:50:42;;;;;;;;;;;;;;;18.99;85.50;152425.77;1782037;79;20178;-61
2022/07/09 00:53:13;;;;;;;;;;;;;;;18.98;85.75;152423.11;1782360;79;21122;-61
2022/07/09 00:55:40;;;;;;;;;;;;;;;18.98;86.05;152423.11;1781978;80;20156;-60
2022/07/09 00:58:08;;;;;;;;;;;;;;;18.99;86.41;152425.77;1782165;79;20178;-61
2022/07/09 01:00:36;;;;;;;;;;;;;;;18.98;86.72;152423.11;1782067;79;20450;-60
2022/07/09 01:03:02;;;;;;;;;;;;;;;18.99;86.88;152425.77;1782331;80;20166;-60
2022/07/09 01:05:35;;;;;;;;;;;;;;;18.98;87.01;152423.11;1782016;80;21227;-61
2022/07/09 01:07:58;;;;;;;;;;;;;;;18.98;87.18;152424.44;1781795;80;20164;-62
2022/07/09 01:10:25;;;;;;;;;;;;;;;18.99;87.39;152425.77;1781655;79;20168;-61
2022/07/09 01:12:52;;;;;;;;;;;;;;;19.01;87.44;152430.98;1780433;80;20754;-61
2022/07/09 01:15:19;;;;;;;;;;;;;;;19.04;87.29;152438.81;1780491;80;20185;-61
2022/07/09 01:17:46;;;;;;;;;;;;;;;19.00;87.37;152429.66;1777114;80;21236;-61
2022/07/09 01:20:13;;;;;;;;;;;;;;;18.99;87.56;152427.05;1786703;79;20570;-61
2022/07/09 01:22:41;;;;;;;;;;;;;;;18.99;87.73;152425.77;1805568;78;20176;-61
2022/07/09 01:25:09;;;;;;;;;;;;;;;18.98;87.99;152424.44;1805602;79;20131;-61
2022/07/09 01:27:36;;;;;;;;;;;;;;;18.97;88.24;152421.78;1805725;79;20164;-61
2022/07/09 01:30:05;;;;;;;;;;;;;;;18.94;88.40;152412.67;1805699;79;21229;-61
2022/07/09 01:32:31;;;;;;;;;;;;;;;18.93;88.65;152410.06;1805678;79;20870;-61
2022/07/09 01:34:58;;;;;;;;;;;;;;;18.93;88.74;152410.06;1805233;78;20915;-61
2022/07/09 01:37:25;;;;;;;;;;;;;;;18.93;88.69;152411.34;1805360;79;20719;-61
2022/07/09 01:39:51;;;;;;;;;;;;;;;18.94;88.62;152412.67;1805719;79;20149;-60
2022/07/09 01:42:19;;;;;;;;;;;;;;;18.97;88.57;152420.50;1805619;79;21141;-61
2022/07/09 01:44:50;;;;;;;;;;;;;;;19.01;88.07;152432.31;1805561;79;20409;-62
2022/07/09 01:47:17;;;;;;;;;;;;;;;19.03;87.60;152437.53;1805717;79;20191;-61
2022/07/09 01:49:44;;;;;;;;;;;;;;;19.04;87.00;152440.13;1805505;79;20152;-61
2022/07/09 01:52:10;;;;;;;;;;;;;;;19.02;86.65;152433.59;1805943;78;20119;-61
2022/07/09 01:54:38;;;;;;;;;;;;;;;19.02;86.34;152433.59;1805715;79;21234;-61
2022/07/09 01:57:05;;;;;;;;;;;;;;;19.03;86.12;152437.53;1805639;79;20402;-61
2022/07/09 01:59:32;;;;;;;;;;;;;;;19.05;85.80;152441.41;1805715;79;20164;-61
2022/07/09 02:01:59;;;;;;;;;;;;;;;19.05;85.73;152441.41;1805752;78;20431;-61
2022/07/09 02:04:25;;;;;;;;;;;;;;;19.05;85.60;152441.41;1805793;79;20417;-61
2022/07/09 02:06:54;;;;;;;;;;;;;;;19.07;85.54;152446.63;1805777;79;20123;-60
2022/07/09 02:09:21;;;;;;;;;;;;;;;19.07;85.62;152446.63;1805887;79;20116;-60
2022/07/09 02:11:49;;;;;;;;;;;;;;;19.09;85.78;152450.56;1777923;79;20129;-61
2022/07/09 02:14:16;;;;;;;;;;;;;;;19.08;85.83;152449.23;1772387;81;20148;-61
2022/07/09 02:16:43;;;;;;;;;;;;;;;19.08;86.26;152449.23;1772229;81;20418;-61
2022/07/09 02:19:10;;;;;;;;;;;;;;;19.10;86.81;152453.17;1777428;80;22167;-60
2022/07/09 02:21:37;;;;;;;;;;;;;;;19.08;87.54;152447.95;1777637;80;20164;-60
2022/07/09 02:24:04;;;;;;;;;;;;;;;19.01;88.24;152432.31;1777792;80;20164;-61
2022/07/09 02:26:31;;;;;;;;;;;;;;;18.96;89.10;152419.17;1777808;80;20179;-60
2022/07/09 02:28:58;;;;;;;;;;;;;;;18.88;89.70;152399.59;1777919;80;20180;-61
2022/07/09 02:31:25;;;;;;;;;;;;;;;18.80;90.29;152378.72;1778019;80;21073;-61
2022/07/09 02:33:53;;;;;;;;;;;;;;;18.77;90.67;152370.91;1777816;80;20125;-61
2022/07/09 02:36:20;;;;;;;;;;;;;;;18.76;90.88;152369.58;1777718;80;20289;-60
2022/07/09 02:38:47;;;;;;;;;;;;;;;18.73;91.18;152361.75;1777559;80;20176;-60
2022/07/09 02:41:14;;;;;;;;;;;;;;;18.72;91.45;152359.14;1778026;80;20171;-62
2022/07/09 02:43:44;;;;;;;;;;;;;;;18.70;91.63;152353.92;1777701;80;21312;-61
2022/07/09 02:46:11;;;;;;;;;;;;;;;18.70;91.81;152352.64;1777500;80;20187;-60
2022/07/09 02:48:38;;;;;;;;;;;;;;;18.72;91.82;152357.86;1777532;80;20203;-60
2022/07/09 02:51:04;;;;;;;;;;;;;;;18.69;91.86;152351.31;1777515;80;20199;-61
2022/07/09 02:53:33;;;;;;;;;;;;;;;18.65;92.09;152340.89;1777231;80;20203;-60
2022/07/09 02:55:59;;;;;;;;;;;;;;;18.65;92.12;152339.56;1777506;80;21248;-61
2022/07/09 02:58:26;;;;;;;;;;;;;;;18.65;92.25;152339.56;1777614;80;20172;-61
2022/07/09 03:00:53;;;;;;;;;;;;;;;18.65;92.27;152339.56;1777860;80;20200;-62
2022/07/09 03:03:23;;;;;;;;;;;;;;;18.67;92.26;152344.77;1777935;80;20550;-60
2022/07/09 03:05:49;;;;;;;;;;;;;;;18.68;92.22;152347.38;1777830;80;20105;-61
2022/07/09 03:08:16;;;;;;;;;;;;;;;18.67;92.29;152344.77;1791115;79;21125;-61
2022/07/09 03:10:42;;;;;;;;;;;;;;;18.64;92.41;152336.95;1799471;79;20122;-61
2022/07/09 03:13:09;;;;;;;;;;;;;;;18.66;92.43;152342.16;1779399;80;20190;-61
2022/07/09 03:15:36;;;;;;;;;;;;;;;18.66;92.41;152342.16;1779482;80;20191;-61
2022/07/09 03:18:09;;;;;;;;;;;;;;;18.63;92.60;152334.34;1779457;80;20182;-61
2022/07/09 03:20:36;;;;;;;;;;;;;;;18.63;92.74;152334.34;1779300;80;21215;-61
2022/07/09 03:23:04;;;;;;;;;;;;;;;18.61;92.87;152331.73;1779452;80;20171;-61
2022/07/09 03:25:31;;;;;;;;;;;;;;;18.61;93.02;152330.45;1779491;80;20414;-61
2022/07/09 03:27:58;;;;;;;;;;;;;;;18.58;93.19;152323.91;1779785;80;20158;-61
2022/07/09 03:30:26;;;;;;;;;;;;;;;18.57;93.49;152321.31;1779481;80;20155;-61
2022/07/09 03:32:52;;;;;;;;;;;;;;;18.55;93.75;152316.09;1779586;79;21758;-61
2022/07/09 03:35:19;;;;;;;;;;;;;;;18.54;93.93;152313.48;1779315;80;20170;-61
2022/07/09 03:37:48;;;;;;;;;;;;;;;18.56;94.19;152318.70;1779326;80;20155;-61
2022/07/09 03:40:14;;;;;;;;;;;;;;;18.57;94.26;152321.31;1779433;80;20182;-61
2022/07/09 03:42:42;;;;;;;;;;;;;;;18.56;94.54;152318.70;1779424;80;20170;-62
2022/07/09 03:45:10;;;;;;;;;;;;;;;18.56;94.79;152318.70;1779487;80;21219;-62
2022/07/09 03:47:37;;;;;;;;;;;;;;;18.57;94.87;152320.03;1779251;79;20263;-61
2022/07/09 03:50:06;;;;;;;;;;;;;;;18.59;94.95;152325.23;1779553;80;20186;-61
2022/07/09 03:52:33;;;;;;;;;;;;;;;18.63;94.97;152334.34;1779693;80;20442;-61
2022/07/09 03:55:00;;;;;;;;;;;;;;;18.66;94.96;152342.16;1779739;80;20143;-61
2022/07/09 03:57:27;;;;;;;;;;;;;;;18.69;95.01;152350.03;1779232;80;21763;-61
2022/07/09 03:59:53;;;;;;;;;;;;;;;18.76;94.83;152368.30;1779375;80;20123;-61
2022/07/09 04:02:20;;;;;;;;;;;;;;;18.80;94.79;152378.72;1779327;80;20230;-61
2022/07/09 04:04:47;;;;;;;;;;;;;;;18.85;94.58;152391.75;1779248;80;20162;-61
2022/07/09 04:07:13;;;;;;;;;;;;;;;18.90;94.51;152404.84;1779495;80;20106;-61
2022/07/09 04:09:40;;;;;;;;;;;;;;;18.97;94.32;152420.50;1779275;80;21239;-61
2022/07/09 04:12:08;;;;;;;;;;;;;;;19.05;94.00;152441.41;1777751;80;20404;-61
2022/07/09 04:14:35;;;;;;;;;;;;;;;19.11;93.57;152457.06;1777608;80;20164;-61
2022/07/09 04:17:02;;;;;;;;;;;;;;;19.16;93.31;152470.16;1777622;80;20479;-62
2022/07/09 04:19:29;;;;;;;;;;;;;;;19.22;92.87;152484.47;1773795;80;20200;-62
2022/07/09 04:21:56;;;;;;;;;;;;;;;19.26;92.16;152494.95;1772184;81;22142;-61
2022/07/09 04:24:24;;;;;;;;;;;;;;;19.30;92.03;152504.06;1772060;81;20188;-61
2022/07/09 04:26:51;;;;;;;;;;;;;;;19.33;91.39;152513.22;1772033;81;20200;-61
2022/07/09 04:29:17;;;;;;;;;;;;;;;19.39;90.64;152526.27;1772148;81;20200;-62
2022/07/09 04:31:44;;;;;;;;;;;;;;;19.42;90.32;152534.09;1772084;81;20188;-62
2022/07/09 04:34:11;;;;;;;;;;;;;;;19.47;89.56;152548.47;1772242;81;21232;-62
2022/07/09 04:36:39;;;;;;;;;;;;;;;19.54;89.43;152564.13;1772190;81;20176;-62
2022/07/09 04:39:05;;;;;;;;;;;;;;;19.62;88.85;152585.03;1772175;81;20422;-62
2022/07/09 04:41:32;;;;;;;;;;;;;;;19.67;88.26;152598.08;1772137;81;20161;-62
2022/07/09 04:43:59;;;;;;;;;;;;;;;19.79;87.83;152628.11;1772387;81;20196;-61
2022/07/09 04:46:27;;;;;;;;;;;;;;;19.88;86.92;152651.59;1772342;81;21141;-61
2022/07/09 04:48:55;;;;;;;;;;;;;;;19.99;86.52;152677.80;1772104;81;20177;-62
2022/07/09 04:51:21;;;;;;;;;;;;;;;20.10;85.76;152706.50;1772352;81;20165;-62
2022/07/09 04:53:48;;;;;;;;;;;;;;;20.20;85.05;152731.31;1772112;81;20457;-61
2022/07/09 04:56:14;;;;;;;;;;;;;;;20.29;83.89;152754.86;1782848;79;20145;-61
2022/07/09 04:58:51;;;;;;;;;;;;;;;20.38;83.06;152777.08;1805471;79;21175;-62
2022/07/09 05:01:10;;;;;;;;;;;;;;;20.49;82.71;152804.50;1804246;78;20231;-62
2022/07/09 05:03:39;;;;;;;;;;;;;;;20.59;82.01;152829.34;1805777;79;20164;-62
2022/07/09 05:06:05;;;;;;;;;;;;;;;20.68;81.92;152851.55;1805929;79;20123;-61
2022/07/09 05:08:32;;;;;;;;;;;;;;;20.85;81.39;152895.98;1805522;78;20150;-62
2022/07/09 05:10:59;;;;;;;;;;;;;;;21.10;80.50;152958.70;1789386;79;21236;-61
2022/07/09 05:13:26;;;;;;;;;;;;;;;21.36;79.82;153022.78;1772270;81;20417;-61
2022/07/09 05:15:53;;;;;;;;;;;;;;;21.59;78.44;153081.63;1772274;81;20141;-61
2022/07/09 05:18:20;;;;;;;;;;;;;;;21.79;77.52;153131.36;1772074;81;20441;-61
2022/07/09 05:20:47;;;;;;;;;;;;;;;21.89;75.91;153157.48;1772300;81;20433;-60
2022/07/09 05:23:14;;;;;;;;;;;;;;;21.96;75.75;153175.78;1772326;81;21746;-60
2022/07/09 05:25:42;;;;;;;;;;;;;;;22.07;75.06;153203.23;1772123;81;20144;-61
2022/07/09 05:28:10;;;;;;;;;;;;;;;22.15;74.35;153222.86;1772427;81;20169;-61
2022/07/09 05:30:37;;;;;;;;;;;;;;;22.19;73.87;153233.31;1772207;81;20165;-61
2022/07/09 05:33:04;;;;;;;;;;;;;;;22.20;73.76;153235.92;1772397;81;20172;-60
2022/07/09 05:35:32;;;;;;;;;;;;;;;22.24;73.69;153246.44;1772193;81;21141;-61
2022/07/09 05:37:58;;;;;;;;;;;;;;;22.29;73.54;153258.16;1772280;81;20125;-60
2022/07/09 05:40:25;;;;;;;;;;;;;;;22.27;73.39;153254.27;1772334;81;20176;-61
2022/07/09 05:42:52;;;;;;;;;;;;;;;22.27;73.44;153254.27;1772145;81;20200;-61
2022/07/09 05:45:19;;;;;;;;;;;;;;;22.26;73.12;153251.66;1772281;81;20465;-61
2022/07/09 05:47:47;;;;;;;;;;;;;;;22.21;73.50;153238.53;1772172;81;20069;-61
2022/07/09 05:50:14;;;;;;;;;;;;;;;22.28;73.40;153256.87;1772227;81;20219;-61
2022/07/09 05:52:41;;;;;;;;;;;;;;;22.38;73.04;153280.41;1771979;81;20196;-62
2022/07/09 05:55:09;;;;;;;;;;;;;;;22.48;71.63;153306.64;1772247;81;20192;-62
2022/07/09 05:57:36;;;;;;;;;;;;;;;22.50;71.63;153311.88;1772136;81;20156;-62
2022/07/09 06:00:04;;;;;;;;;;;;;;;22.61;71.00;153340.63;1772268;81;21268;-61
2022/07/09 06:02:31;;;;;;;;;;;;;;;22.68;70.23;153356.34;1771832;81;20213;-61
2022/07/09 06:04:57;;;;;;;;;;;;;;;22.73;69.70;153369.42;1771903;81;20149;-61
2022/07/09 06:07:24;;;;;;;;;;;;;;;22.73;69.66;153370.70;1771595;81;20219;-61
2022/07/09 06:09:51;;;;;;;;;;;;;;;22.78;69.94;153382.50;1771733;81;20223;-61
2022/07/09 06:12:18;;;;;;;;;;;;;;;22.90;69.61;153412.59;1772062;81;21133;-62
2022/07/09 06:14:45;;;;;;;;;;;;;;;22.95;69.28;153424.38;1772066;81;20309;-62
2022/07/09 06:17:11;;;;;;;;;;;;;;;23.04;69.43;153447.91;1772367;81;20132;-62
2022/07/09 06:19:38;;;;;;;;;;;;;;;23.16;68.99;153479.33;1750780;80;20500;-62
2022/07/09 06:22:05;;;;;;;;;;;;;;;23.29;67.51;153512.09;1733531;81;20500;-62
2022/07/09 06:24:32;;;;;;;;;;;;;;;23.23;67.67;153495.02;1733321;82;21137;-62
2022/07/09 06:26:59;;;;;;;;;;;;;;;23.20;67.96;153487.17;1733601;81;20230;-62
2022/07/09 06:29:26;;;;;;;;;;;;;;;23.20;67.61;153487.17;1733419;81;20179;-61
2022/07/09 06:31:57;;;;;;;;;;;;;;;23.18;67.54;153484.56;1733381;81;20155;-61
2022/07/09 06:34:22;;;;;;;;;;;;;;;23.21;67.77;153489.78;1733443;81;20187;-61
2022/07/09 06:36:50;;;;;;;;;;;;;;;23.28;67.78;153508.14;1704190;82;20406;-61
2022/07/09 06:42:06;;;;;;;;;;;;;;;23.41;66.97;153540.86;1733480;82;20206;-61
2022/07/09 06:44:34;;;;;;;;;;;;;;;23.46;66.92;153555.27;1745155;81;20455;-62
2022/07/09 06:47:04;;;;;;;;;;;;;;;23.54;65.87;153573.56;1765151;80;20461;-61
2022/07/09 06:49:31;;;;;;;;;;;;;;;23.57;65.82;153581.47;1765513;80;21223;-61
2022/07/09 06:51:57;;;;;;;;;;;;;;;23.67;64.76;153607.62;1765450;81;20391;-62
2022/07/09 06:54:24;;;;;;;;;;;;;;;23.70;63.88;153615.47;1765620;81;20157;-61
2022/07/09 06:56:51;;;;;;;;;;;;;;;23.66;64.05;153605.02;1765517;80;20161;-62
2022/07/09 06:59:19;;;;;;;;;;;;;;;23.64;63.67;153598.44;1765645;80;20551;-62
2022/07/09 07:01:45;;;;;;;;;;;;;;;23.54;64.17;153573.56;1765520;80;21125;-62
2022/07/09 07:04:12;;;;;;;;;;;;;;;23.48;64.84;153557.88;1765599;81;20406;-62
2022/07/09 07:06:40;;;;;;;;;;;;;;;23.46;64.75;153553.98;1765497;80;20168;-62
2022/07/09 07:09:06;;;;;;;;;;;;;;;23.55;64.96;153576.23;1765526;80;20217;-62
2022/07/09 07:11:34;;;;;;;;;;;;;;;23.70;64.67;153614.19;1742210;81;20131;-62
2022/07/09 07:14:01;;;;;;;;;;;;;;;23.90;64.48;153665.22;1733600;81;21225;-62
2022/07/09 07:16:28;;;;;;;;;;;;;;;24.08;63.24;153711.08;1733629;82;20514;-62
2022/07/09 07:18:54;;;;;;;;;;;;;;;24.17;63.07;153733.34;1733442;80;20171;-62
2022/07/09 07:21:23;;;;;;;;;;;;;;;24.29;62.61;153764.78;1733592;81;20480;-62
2022/07/09 07:23:49;;;;;;;;;;;;;;;24.40;61.80;153790.95;1733740;82;20099;-62
2022/07/09 07:26:16;;;;;;;;;;;;;;;24.42;61.86;153797.53;1733787;81;21920;-63
2022/07/09 07:28:43;;;;;;;;;;;;;;;24.42;61.70;153797.53;1733411;81;20431;-63
2022/07/09 07:31:10;;;;;;;;;;;;;;;24.38;61.92;153785.72;1733612;82;20130;-62
2022/07/09 07:33:38;;;;;;;;;;;;;;;24.40;62.26;153790.95;1733420;81;20187;-61
2022/07/09 07:36:05;;;;;;;;;;;;;;;24.41;62.30;153794.91;1733729;82;20439;-64
2022/07/09 07:38:32;;;;;;;;;;;;;;;24.48;62.44;153810.61;1733687;81;21964;-62
2022/07/09 07:40:59;;;;;;;;;;;;;;;24.55;62.70;153830.25;1733544;81;20451;-62
2022/07/09 07:43:26;;;;;;;;;;;;;;;24.70;62.48;153868.23;1733671;82;20179;-63
2022/07/09 07:45:54;;;;;;;;;;;;;;;24.83;61.89;153899.73;1733572;82;20171;-63
2022/07/09 07:48:20;;;;;;;;;;;;;;;24.97;61.44;153935.09;1733602;81;20237;-63
2022/07/09 07:50:47;;;;;;;;;;;;;;;25.08;61.08;153963.89;1733570;81;21142;-64
2022/07/09 07:53:14;;;;;;;;;;;;;;;25.16;60.74;153984.88;1733694;81;20380;-63
2022/07/09 07:55:41;;;;;;;;;;;;;;;25.24;60.43;154004.55;1733457;81;20159;-63
2022/07/09 07:58:07;;;;;;;;;;;;;;;25.29;58.90;154017.64;1733433;82;20159;-63
2022/07/09 08:00:34;;;;;;;;;;;;;;;25.33;58.69;154026.83;1733218;81;20407;-63
2022/07/09 08:03:01;;;;;;;;;;;;;;;25.33;57.48;154026.83;1733577;81;21136;-63
2022/07/09 08:05:28;;;;;;;;;;;;;;;25.22;57.69;153999.31;1733186;81;20491;-63
2022/07/09 08:07:55;;;;;;;;;;;;;;;25.18;58.07;153990.13;1733515;81;20207;-63
2022/07/09 08:10:21;;;;;;;;;;;;;;;25.21;58.37;153995.36;1733757;81;20495;-64
2022/07/09 08:12:50;;;;;;;;;;;;;;;25.23;58.54;154001.94;1740856;82;20150;-63
2022/07/09 08:15:18;;;;;;;;;;;;;;;25.30;58.54;154018.92;1740781;81;20994;-63
2022/07/09 08:17:45;;;;;;;;;;;;;;;25.38;58.74;154039.91;1740708;81;20179;-63
2022/07/09 08:20:12;;;;;;;;;;;;;;;25.48;58.78;154063.53;1760584;80;20178;-63
2022/07/09 08:22:39;;;;;;;;;;;;;;;25.59;57.59;154092.38;1779238;80;20174;-63
2022/07/09 08:25:07;;;;;;;;;;;;;;;25.69;58.01;154118.56;1779445;80;20183;-63
2022/07/09 08:27:34;;;;;;;;;;;;;;;25.82;57.76;154150.03;1779442;80;21071;-63
2022/07/09 08:30:01;;;;;;;;;;;;;;;25.89;57.48;154168.37;1779441;80;20423;-63
2022/07/09 08:32:29;;;;;;;;;;;;;;;25.95;57.80;154182.81;1790713;79;20175;-63
2022/07/09 08:34:55;;;;;;;;;;;;;;;26.11;57.81;154223.42;1811328;79;20184;-63
2022/07/09 08:37:23;;;;;;;;;;;;;;;26.24;56.74;154256.25;1811231;78;20175;-63
2022/07/09 08:39:50;;;;;;;;;;;;;;;26.30;57.08;154273.30;1811263;79;21232;-62
2022/07/09 08:42:16;;;;;;;;;;;;;;;26.43;56.76;154306.06;1811257;79;20200;-62
2022/07/09 08:44:45;;;;;;;;;;;;;;;26.51;56.14;154325.73;1811440;79;20159;-63
2022/07/09 08:47:12;;;;;;;;;;;;;;;26.54;56.53;154332.31;1811974;79;20163;-63
2022/07/09 08:49:38;;;;;;;;;;;;;;;26.65;56.37;154361.13;1811197;79;20175;-63
2022/07/09 08:52:07;;;;;;;;;;;;;;;26.80;55.45;154399.16;1811647;79;21125;-63
2022/07/09 08:54:37;;;;;;;;;;;;;;;26.89;55.46;154421.50;1811332;79;20119;-63
2022/07/09 08:57:05;;;;;;;;;;;;;;;26.96;55.70;154438.56;1811714;79;20092;-63
2022/07/09 08:59:33;;;;;;;;;;;;;;;27.12;54.71;154479.20;1811260;79;20516;-63
2022/07/09 09:02:04;;;;;;;;;;;;;;;27.14;54.00;154485.78;1811198;77;20121;-64
2022/07/09 09:04:34;;;;;;;;;;;;;;;27.19;54.25;154496.27;1811491;79;21914;-64
2022/07/09 09:07:13;;;;;;;;;;;;;;;27.30;54.14;154525.09;1811288;79;20160;-63
2022/07/09 09:09:40;;;;;;;;;;;;;;;27.43;52.53;154559.22;1810757;79;20170;-64
2022/07/09 09:12:07;;;;;;;;;;;;;;;27.48;52.14;154571.03;1781250;79;20159;-65
2022/07/09 09:14:34;;;;;;;;;;;;;;;27.46;51.00;154565.80;1779610;79;20099;-64
2022/07/09 09:17:09;;;;;;;;;;;;;;;27.51;50.55;154577.56;1779414;80;21244;-64
2022/07/09 09:19:36;;;;;;;;;;;;;;;27.50;50.02;154574.94;1780143;80;20217;-64
2022/07/09 09:22:03;;;;;;;;;;;;;;;27.47;49.73;154568.42;1786938;80;20135;-65
2022/07/09 09:24:30;;;;;;;;;;;;;;;27.47;50.19;154568.42;1787255;80;20176;-64
2022/07/09 09:26:59;;;;;;;;;;;;;;;27.54;50.23;154585.53;1787089;80;20422;-63
2022/07/09 09:29:26;;;;;;;;;;;;;;;27.60;49.44;154601.25;1786939;79;21092;-64
2022/07/09 09:31:53;;;;;;;;;;;;;;;27.65;49.94;154614.38;1787262;79;20131;-64
2022/07/09 09:34:21;;;;;;;;;;;;;;;27.82;49.40;154656.36;1787590;80;20129;-64
2022/07/09 09:36:56;;;;;;;;;;;;;;;27.99;48.96;154700.98;1787293;80;20787;-64
2022/07/09 09:39:24;;;;;;;;;;;;;;;28.16;48.51;154744.33;1787524;80;20150;-63
2022/07/09 09:41:52;;;;;;;;;;;;;;;28.36;48.14;154794.20;1787098;80;21967;-63
2022/07/09 09:44:20;;;;;;;;;;;;;;;28.49;48.03;154827.00;1787546;79;20149;-63
2022/07/09 09:46:47;;;;;;;;;;;;;;;28.63;46.43;154861.11;1787447;79;20162;-64
2022/07/09 09:49:15;;;;;;;;;;;;;;;28.53;46.17;154837.50;1787563;79;20129;-63
2022/07/09 09:51:56;;;;;;;;;;;;;;;28.33;46.31;154785.00;1787256;80;20170;-63
2022/07/09 09:54:24;;;;;;;;;;;;;;;28.14;46.77;154737.69;1787547;80;22023;-63
2022/07/09 09:56:52;;;;;;;;;;;;;;;28.10;46.62;154727.20;1787168;80;20198;-64
2022/07/09 09:59:19;;;;;;;;;;;;;;;28.13;46.53;154736.41;1787489;80;20197;-64
2022/07/09 10:01:46;;;;;;;;;;;;;;;28.26;46.62;154767.94;1787166;80;20210;-63
2022/07/09 10:04:14;;;;;;;;;;;;;;;28.37;46.02;154796.83;1787340;80;20162;-64
2022/07/09 10:06:41;;;;;;;;;;;;;;;28.44;46.91;154813.89;1787302;80;22078;-63
2022/07/09 10:09:11;;;;;;;;;;;;;;;28.44;47.32;154813.89;1787561;79;20109;-64
2022/07/09 10:11:46;;;;;;;;;;;;;;;28.44;46.99;154813.89;1783835;80;20221;-63
2022/07/09 10:14:26;;;;;;;;;;;;;;;28.44;47.03;154815.19;1783334;80;20127;-63
2022/07/09 10:16:54;;;;;;;;;;;;;;;28.50;46.34;154829.63;1782986;80;20155;-65
2022/07/09 10:19:25;;;;;;;;;;;;;;;28.49;46.23;154827.00;1782985;80;22119;-63
2022/07/09 10:21:53;;;;;;;;;;;;;;;28.48;46.66;154824.39;1807697;79;20322;-64
2022/07/09 10:24:30;;;;;;;;;;;;;;;28.39;47.22;154800.73;1817235;79;20168;-64
2022/07/09 10:27:07;;;;;;;;;;;;;;;28.36;47.07;154792.88;1816945;79;20628;-64
2022/07/09 10:29:35;;;;;;;;;;;;;;;28.40;47.21;154803.36;1816980;79;20171;-64
2022/07/09 10:32:01;;;;;;;;;;;;;;;28.42;47.05;154808.66;1816965;79;21240;-64
2022/07/09 10:34:51;;;;;;;;;;;;;;;28.49;46.71;154827.00;1785512;79;20210;-64
2022/07/09 10:37:18;;;;;;;;;;;;;;;28.53;46.53;154836.22;1816971;79;20132;-64
2022/07/09 10:39:54;;;;;;;;;;;;;;;28.51;46.34;154832.25;1816881;77;20586;-63
2022/07/09 10:42:23;;;;;;;;;;;;;;;28.43;46.18;154811.28;1816658;77;20195;-64
2022/07/09 10:44:51;;;;;;;;;;;;;;;28.42;46.16;154808.66;1816816;79;21850;-65
2022/07/09 10:47:18;;;;;;;;;;;;;;;28.47;45.88;154821.77;1817086;77;20143;-65
2022/07/09 10:49:44;;;;;;;;;;;;;;;28.56;45.76;154844.08;1785412;79;20444;-65
2022/07/09 10:52:11;;;;;;;;;;;;;;;28.66;45.36;154870.31;1816791;79;20495;-66
2022/07/09 10:54:46;;;;;;;;;;;;;;;28.78;44.92;154900.50;1816755;79;20197;-66
2022/07/09 10:57:13;;;;;;;;;;;;;;;28.81;44.47;154908.42;1816983;79;21210;-66
2022/07/09 10:59:45;;;;;;;;;;;;;;;28.86;44.40;154921.58;1816739;79;20135;-66
2022/07/09 11:02:21;;;;;;;;;;;;;;;28.98;44.15;154950.44;1817081;79;20451;-66
2022/07/09 11:04:52;;;;;;;;;;;;;;;29.09;42.62;154979.34;1816790;79;20168;-65
2022/07/09 11:07:22;;;;;;;;;;;;;;;29.04;43.14;154966.19;1816686;79;20166;-65
2022/07/09 11:09:49;;;;;;;;;;;;;;;29.05;43.74;154968.81;1816557;79;21210;-65
2022/07/09 11:12:18;;;;;;;;;;;;;;;29.18;43.54;155000.34;1753709;81;20429;-66
2022/07/09 11:14:46;;;;;;;;;;;;;;;29.24;42.85;155017.42;1753346;82;20199;-65
2022/07/09 11:17:17;;;;;;;;;;;;;;;29.24;43.01;155016.08;1753708;81;20191;-65
2022/07/09 11:19:44;;;;;;;;;;;;;;;29.24;43.10;155016.08;1758608;80;20217;-63
2022/07/09 11:22:11;;;;;;;;;;;;;;;29.24;42.88;155016.08;1778722;80;21768;-64
2022/07/09 11:24:38;;;;;;;;;;;;;;;29.35;42.84;155045.00;1778641;80;20177;-64
2022/07/09 11:27:05;;;;;;;;;;;;;;;29.48;42.33;155076.53;1779663;80;20187;-64
2022/07/09 11:29:32;;;;;;;;;;;;;;;29.51;41.66;155085.73;1779698;80;20770;-64
2022/07/09 11:32:01;;;;;;;;;;;;;;;29.42;41.44;155063.41;1769317;79;20165;-64
2022/07/09 11:34:29;;;;;;;;;;;;;;;29.29;41.82;155029.20;1782246;80;21831;-64
2022/07/09 11:36:57;;;;;;;;;;;;;;;29.18;41.38;155000.34;1781932;79;20170;-63
2022/07/09 11:39:28;;;;;;;;;;;;;;;29.09;41.82;154979.34;1782320;79;20198;-64
2022/07/09 11:41:59;;;;;;;;;;;;;;;29.13;42.26;154989.84;1781531;79;20136;-63
2022/07/09 11:44:27;;;;;;;;;;;;;;;29.26;42.03;155021.33;1780963;80;20182;-63
2022/07/09 11:47:03;;;;;;;;;;;;;;;29.34;41.67;155041.03;1781773;79;21219;-63
2022/07/09 11:49:34;;;;;;;;;;;;;;;29.34;40.91;155042.38;1778395;79;20182;-63
2022/07/09 11:52:01;;;;;;;;;;;;;;;29.35;41.15;155045.00;1781068;79;20125;-62
2022/07/09 11:54:28;;;;;;;;;;;;;;;29.45;40.58;155071.28;1780584;80;20493;-63
2022/07/09 11:56:57;;;;;;;;;;;;;;;29.53;40.59;155091.00;1780552;80;20130;-64
2022/07/09 11:59:31;;;;;;;;;;;;;;;29.60;40.31;155108.08;1780563;80;21121;-63
2022/07/09 12:01:58;;;;;;;;;;;;;;;29.57;40.24;155100.20;1780598;80;20164;-63
2022/07/09 12:04:34;;;;;;;;;;;;;;;29.54;40.60;155092.33;1781149;80;20154;-63
2022/07/09 12:06:58;;;;;;;;;;;;;;;29.61;40.07;155109.36;1781798;80;20428;-63
2022/07/09 12:09:31;;;;;;;;;;;;;;;29.62;40.30;155113.31;1784630;79;20197;-63
2022/07/09 12:11:59;;;;;;;;;;;;;;;29.67;40.86;155126.44;1781830;79;21117;-62
2022/07/09 12:14:26;;;;;;;;;;;;;;;29.61;40.73;155110.70;1782283;79;20114;-62
2022/07/09 12:16:53;;;;;;;;;;;;;;;29.52;40.39;155088.38;1781211;80;20163;-62
2022/07/09 12:19:20;;;;;;;;;;;;;;;29.48;40.88;155076.53;1781836;79;20526;-62
2022/07/09 12:21:47;;;;;;;;;;;;;;;29.48;41.63;155076.53;1781836;79;20206;-62
2022/07/09 12:24:14;;;;;;;;;;;;;;;29.52;41.85;155087.08;1780630;80;21237;-62
2022/07/09 12:26:40;;;;;;;;;;;;;;;29.53;42.06;155089.70;1780105;80;20202;-62
2022/07/09 12:29:07;;;;;;;;;;;;;;;29.55;42.51;155094.95;1780471;80;20132;-62
2022/07/09 12:31:37;;;;;;;;;;;;;;;29.53;42.69;155089.70;1780437;80;20204;-62
2022/07/09 12:34:04;;;;;;;;;;;;;;;29.51;42.97;155084.41;1780004;80;20176;-62
2022/07/09 12:36:32;;;;;;;;;;;;;;;29.43;41.45;155066.03;1781095;80;21236;-62
2022/07/09 12:38:59;;;;;;;;;;;;;;;29.33;41.23;155039.75;1781396;80;20201;-62
2022/07/09 12:41:26;;;;;;;;;;;;;;;29.31;41.20;155034.50;1780228;80;20195;-62